sensor_id;sensor_type;location;lat;lon;timestamp;P1;durP1;ratioP1;P2;durP2;ratioP2
75470;SDS011;64051;46.320;48.028;2022-12-29T00:02:25;4.22;;;1.80;;
75470;SDS011;64051;46.320;48.028;2022-12-29T00:04:51;5.32;;;1.85;;
75470;SDS011;64051;46.320;48.028;2022-12-29T00:07:18;3.70;;;2.08;;
75470;SDS011;64051;46.320;48.028;2022-12-29T00:09:44;5.55;;;2.60;;
75470;SDS011;64051;46.320;48.028;2022-12-29T00:12:10;5.85;;;2.03;;
75470;SDS011;64051;46.320;48.028;2022-12-29T00:14:36;5.35;;;2.20;;
75470;SDS011;64051;46.320;48.028;2022-12-29T00:17:20;3.50;;;1.60;;
75470;SDS011;64051;46.320;48.028;2022-12-29T00:19:46;3.90;;;1.60;;
75470;SDS011;64051;46.320;48.028;2022-12-29T00:22:30;3.58;;;1.90;;
75470;SDS011;64051;46.320;48.028;2022-12-29T00:27:58;5.57;;;2.40;;
75470;SDS011;64051;46.320;48.028;2022-12-29T00:30:43;3.88;;;1.90;;
75470;SDS011;64051;46.320;48.028;2022-12-29T00:33:29;3.92;;;1.90;;
75470;SDS011;64051;46.320;48.028;2022-12-29T00:36:17;8.77;;;2.92;;
75470;SDS011;64051;46.320;48.028;2022-12-29T00:38:51;5.03;;;2.17;;
75470;SDS011;64051;46.320;48.028;2022-12-29T00:41:41;6.60;;;2.40;;
75470;SDS011;64051;46.320;48.028;2022-12-29T00:44:25;3.53;;;1.83;;
75470;SDS011;64051;46.320;48.028;2022-12-29T00:46:51;5.85;;;2.42;;
75470;SDS011;64051;46.320;48.028;2022-12-29T00:49:18;4.43;;;2.03;;
75470;SDS011;64051;46.320;48.028;2022-12-29T00:52:00;6.38;;;2.10;;
75470;SDS011;64051;46.320;48.028;2022-12-29T00:54:29;4.47;;;2.33;;
75470;SDS011;64051;46.320;48.028;2022-12-29T00:56:57;2.22;;;1.33;;
75470;SDS011;64051;46.320;48.028;2022-12-29T00:59:23;6.70;;;3.28;;
75470;SDS011;64051;46.320;48.028;2022-12-29T01:01:49;4.30;;;2.20;;
75470;SDS011;64051;46.320;48.028;2022-12-29T01:04:19;3.78;;;1.65;;
75470;SDS011;64051;46.320;48.028;2022-12-29T01:09:31;5.70;;;2.30;;
75470;SDS011;64051;46.320;48.028;2022-12-29T01:12:15;5.65;;;1.85;;
75470;SDS011;64051;46.320;48.028;2022-12-29T01:14:41;6.47;;;2.20;;
75470;SDS011;64051;46.320;48.028;2022-12-29T01:17:07;5.10;;;2.25;;
75470;SDS011;64051;46.320;48.028;2022-12-29T01:19:33;5.97;;;2.38;;
75470;SDS011;64051;46.320;48.028;2022-12-29T01:21:59;3.63;;;1.70;;
75470;SDS011;64051;46.320;48.028;2022-12-29T01:24:26;4.07;;;1.98;;
75470;SDS011;64051;46.320;48.028;2022-12-29T01:26:53;3.10;;;1.75;;
75470;SDS011;64051;46.320;48.028;2022-12-29T01:29:19;4.22;;;1.83;;
75470;SDS011;64051;46.320;48.028;2022-12-29T01:31:45;2.55;;;1.40;;
75470;SDS011;64051;46.320;48.028;2022-12-29T01:34:12;4.35;;;1.73;;
75470;SDS011;64051;46.320;48.028;2022-12-29T01:36:38;3.85;;;1.67;;
75470;SDS011;64051;46.320;48.028;2022-12-29T01:39:04;5.45;;;1.63;;
75470;SDS011;64051;46.320;48.028;2022-12-29T01:41:30;5.18;;;2.20;;
75470;SDS011;64051;46.320;48.028;2022-12-29T01:43:57;4.13;;;1.98;;
75470;SDS011;64051;46.320;48.028;2022-12-29T01:46:39;3.85;;;1.38;;
75470;SDS011;64051;46.320;48.028;2022-12-29T01:51:35;6.00;;;2.15;;
75470;SDS011;64051;46.320;48.028;2022-12-29T01:54:09;5.18;;;2.10;;
75470;SDS011;64051;46.320;48.028;2022-12-29T01:56:53;3.47;;;1.65;;
75470;SDS011;64051;46.320;48.028;2022-12-29T01:59:22;3.88;;;1.92;;
75470;SDS011;64051;46.320;48.028;2022-12-29T02:01:52;5.03;;;1.55;;
75470;SDS011;64051;46.320;48.028;2022-12-29T02:04:19;3.92;;;1.52;;
75470;SDS011;64051;46.320;48.028;2022-12-29T02:06:51;2.53;;;1.48;;
75470;SDS011;64051;46.320;48.028;2022-12-29T02:09:21;4.47;;;1.60;;
75470;SDS011;64051;46.320;48.028;2022-12-29T02:11:49;4.53;;;2.30;;
75470;SDS011;64051;46.320;48.028;2022-12-29T02:23:33;3.33;;;1.73;;
75470;SDS011;64051;46.320;48.028;2022-12-29T02:31:27;5.25;;;1.85;;
75470;SDS011;64051;46.320;48.028;2022-12-29T02:37:02;4.78;;;1.67;;
75470;SDS011;64051;46.320;48.028;2022-12-29T02:39:49;4.22;;;2.10;;
75470;SDS011;64051;46.320;48.028;2022-12-29T02:50:44;2.97;;;2.15;;
75470;SDS011;64051;46.320;48.028;2022-12-29T02:53:18;5.25;;;2.10;;
75470;SDS011;64051;46.320;48.028;2022-12-29T02:56:06;2.90;;;1.17;;
75470;SDS011;64051;46.320;48.028;2022-12-29T02:58:32;5.57;;;2.45;;
75470;SDS011;64051;46.320;48.028;2022-12-29T03:15:17;6.28;;;2.42;;
75470;SDS011;64051;46.320;48.028;2022-12-29T03:18:37;6.13;;;2.35;;
75470;SDS011;64051;46.320;48.028;2022-12-29T03:21:31;7.35;;;2.72;;
75470;SDS011;64051;46.320;48.028;2022-12-29T03:24:34;3.80;;;1.80;;
75470;SDS011;64051;46.320;48.028;2022-12-29T03:27:05;8.18;;;2.85;;
75470;SDS011;64051;46.320;48.028;2022-12-29T03:29:43;4.82;;;2.60;;
75470;SDS011;64051;46.320;48.028;2022-12-29T03:32:18;5.63;;;2.78;;
75470;SDS011;64051;46.320;48.028;2022-12-29T03:34:50;6.85;;;2.78;;
75470;SDS011;64051;46.320;48.028;2022-12-29T03:37:17;7.53;;;2.92;;
75470;SDS011;64051;46.320;48.028;2022-12-29T03:39:53;4.85;;;2.00;;
75470;SDS011;64051;46.320;48.028;2022-12-29T03:42:20;5.40;;;2.05;;
75470;SDS011;64051;46.320;48.028;2022-12-29T03:44:53;6.53;;;2.75;;
75470;SDS011;64051;46.320;48.028;2022-12-29T03:50:08;7.10;;;3.22;;
75470;SDS011;64051;46.320;48.028;2022-12-29T03:52:38;7.10;;;2.10;;
75470;SDS011;64051;46.320;48.028;2022-12-29T03:57:52;7.78;;;3.30;;
75470;SDS011;64051;46.320;48.028;2022-12-29T04:00:28;5.20;;;2.88;;
75470;SDS011;64051;46.320;48.028;2022-12-29T04:02:54;9.25;;;3.83;;
75470;SDS011;64051;46.320;48.028;2022-12-29T04:05:22;4.40;;;2.03;;
75470;SDS011;64051;46.320;48.028;2022-12-29T04:07:54;7.47;;;2.40;;
75470;SDS011;64051;46.320;48.028;2022-12-29T04:10:20;5.07;;;2.50;;
75470;SDS011;64051;46.320;48.028;2022-12-29T04:12:48;2.75;;;1.42;;
75470;SDS011;64051;46.320;48.028;2022-12-29T04:15:14;7.50;;;2.70;;
75470;SDS011;64051;46.320;48.028;2022-12-29T04:17:41;11.23;;;3.17;;
75470;SDS011;64051;46.320;48.028;2022-12-29T04:20:07;8.93;;;2.88;;
75470;SDS011;64051;46.320;48.028;2022-12-29T04:22:58;6.03;;;2.90;;
75470;SDS011;64051;46.320;48.028;2022-12-29T04:25:30;12.57;;;3.78;;
75470;SDS011;64051;46.320;48.028;2022-12-29T04:27:57;5.75;;;2.38;;
75470;SDS011;64051;46.320;48.028;2022-12-29T04:30:45;4.40;;;2.05;;
75470;SDS011;64051;46.320;48.028;2022-12-29T04:33:18;4.80;;;2.50;;
75470;SDS011;64051;46.320;48.028;2022-12-29T04:35:45;5.85;;;2.25;;
75470;SDS011;64051;46.320;48.028;2022-12-29T04:38:13;7.57;;;3.20;;
75470;SDS011;64051;46.320;48.028;2022-12-29T04:40:40;7.57;;;3.28;;
75470;SDS011;64051;46.320;48.028;2022-12-29T04:46:15;8.30;;;3.53;;
75470;SDS011;64051;46.320;48.028;2022-12-29T04:49:10;6.53;;;2.67;;
75470;SDS011;64051;46.320;48.028;2022-12-29T04:51:54;7.32;;;2.63;;
75470;SDS011;64051;46.320;48.028;2022-12-29T04:54:20;6.47;;;2.65;;
75470;SDS011;64051;46.320;48.028;2022-12-29T04:57:07;9.23;;;3.67;;
75470;SDS011;64051;46.320;48.028;2022-12-29T04:59:36;5.07;;;2.25;;
75470;SDS011;64051;46.320;48.028;2022-12-29T05:02:03;7.03;;;2.90;;
75470;SDS011;64051;46.320;48.028;2022-12-29T05:04:31;6.00;;;2.20;;
75470;SDS011;64051;46.320;48.028;2022-12-29T05:06:57;4.40;;;1.67;;
75470;SDS011;64051;46.320;48.028;2022-12-29T05:09:27;4.32;;;1.50;;
75470;SDS011;64051;46.320;48.028;2022-12-29T05:11:53;5.57;;;2.83;;
75470;SDS011;64051;46.320;48.028;2022-12-29T05:14:21;9.45;;;3.00;;
75470;SDS011;64051;46.320;48.028;2022-12-29T05:16:47;5.85;;;2.50;;
75470;SDS011;64051;46.320;48.028;2022-12-29T05:19:13;7.90;;;3.13;;
75470;SDS011;64051;46.320;48.028;2022-12-29T05:21:39;8.35;;;3.15;;
75470;SDS011;64051;46.320;48.028;2022-12-29T05:24:06;6.88;;;2.38;;
75470;SDS011;64051;46.320;48.028;2022-12-29T05:26:32;8.27;;;3.10;;
75470;SDS011;64051;46.320;48.028;2022-12-29T05:29:19;6.25;;;2.97;;
75470;SDS011;64051;46.320;48.028;2022-12-29T05:31:45;5.38;;;2.25;;
75470;SDS011;64051;46.320;48.028;2022-12-29T05:34:11;8.20;;;3.10;;
75470;SDS011;64051;46.320;48.028;2022-12-29T05:36:39;6.72;;;3.00;;
75470;SDS011;64051;46.320;48.028;2022-12-29T05:39:07;8.07;;;3.33;;
75470;SDS011;64051;46.320;48.028;2022-12-29T05:41:34;9.40;;;3.95;;
75470;SDS011;64051;46.320;48.028;2022-12-29T05:44:33;8.00;;;3.25;;
75470;SDS011;64051;46.320;48.028;2022-12-29T05:47:22;11.50;;;2.70;;
75470;SDS011;64051;46.320;48.028;2022-12-29T05:50:06;7.30;;;2.92;;
75470;SDS011;64051;46.320;48.028;2022-12-29T05:52:55;9.13;;;3.58;;
75470;SDS011;64051;46.320;48.028;2022-12-29T05:55:27;8.73;;;3.60;;
75470;SDS011;64051;46.320;48.028;2022-12-29T05:57:54;6.45;;;3.00;;
75470;SDS011;64051;46.320;48.028;2022-12-29T06:00:20;5.57;;;2.42;;
75470;SDS011;64051;46.320;48.028;2022-12-29T06:02:46;10.20;;;4.35;;
75470;SDS011;64051;46.320;48.028;2022-12-29T06:05:14;8.13;;;3.42;;
75470;SDS011;64051;46.320;48.028;2022-12-29T06:10:33;7.13;;;3.05;;
75470;SDS011;64051;46.320;48.028;2022-12-29T06:13:04;5.50;;;2.30;;
75470;SDS011;64051;46.320;48.028;2022-12-29T06:15:35;6.70;;;1.90;;
75470;SDS011;64051;46.320;48.028;2022-12-29T06:18:04;8.60;;;2.92;;
75470;SDS011;64051;46.320;48.028;2022-12-29T06:20:30;8.15;;;3.47;;
75470;SDS011;64051;46.320;48.028;2022-12-29T06:22:56;10.65;;;4.60;;
75470;SDS011;64051;46.320;48.028;2022-12-29T06:25:22;6.43;;;2.70;;
75470;SDS011;64051;46.320;48.028;2022-12-29T06:27:48;6.35;;;3.15;;
75470;SDS011;64051;46.320;48.028;2022-12-29T06:30:14;7.05;;;2.38;;
75470;SDS011;64051;46.320;48.028;2022-12-29T06:32:42;7.68;;;2.58;;
75470;SDS011;64051;46.320;48.028;2022-12-29T06:35:14;5.25;;;2.13;;
75470;SDS011;64051;46.320;48.028;2022-12-29T06:37:51;8.32;;;2.92;;
75470;SDS011;64051;46.320;48.028;2022-12-29T06:40:21;6.57;;;2.78;;
75470;SDS011;64051;46.320;48.028;2022-12-29T06:43:12;5.10;;;2.65;;
75470;SDS011;64051;46.320;48.028;2022-12-29T06:46:00;6.05;;;2.60;;
75470;SDS011;64051;46.320;48.028;2022-12-29T06:48:30;9.00;;;3.13;;
75470;SDS011;64051;46.320;48.028;2022-12-29T06:51:00;5.07;;;2.55;;
75470;SDS011;64051;46.320;48.028;2022-12-29T06:53:26;5.70;;;2.10;;
75470;SDS011;64051;46.320;48.028;2022-12-29T06:55:55;10.13;;;4.45;;
75470;SDS011;64051;46.320;48.028;2022-12-29T06:58:32;12.75;;;4.55;;
75470;SDS011;64051;46.320;48.028;2022-12-29T07:00:58;9.10;;;4.05;;
75470;SDS011;64051;46.320;48.028;2022-12-29T07:03:30;6.07;;;2.42;;
75470;SDS011;64051;46.320;48.028;2022-12-29T07:05:59;6.38;;;2.55;;
75470;SDS011;64051;46.320;48.028;2022-12-29T07:09:02;8.40;;;3.03;;
75470;SDS011;64051;46.320;48.028;2022-12-29T07:14:31;3.95;;;1.63;;
75470;SDS011;64051;46.320;48.028;2022-12-29T07:17:08;10.63;;;4.85;;
75470;SDS011;64051;46.320;48.028;2022-12-29T07:19:36;6.00;;;2.65;;
75470;SDS011;64051;46.320;48.028;2022-12-29T07:22:38;9.45;;;3.72;;
75470;SDS011;64051;46.320;48.028;2022-12-29T07:32:18;6.88;;;2.92;;
75470;SDS011;64051;46.320;48.028;2022-12-29T07:34:49;7.80;;;3.42;;
75470;SDS011;64051;46.320;48.028;2022-12-29T07:37:21;5.63;;;2.50;;
75470;SDS011;64051;46.320;48.028;2022-12-29T07:39:47;4.55;;;1.75;;
75470;SDS011;64051;46.320;48.028;2022-12-29T07:42:16;6.63;;;2.95;;
75470;SDS011;64051;46.320;48.028;2022-12-29T07:44:47;8.73;;;3.38;;
75470;SDS011;64051;46.320;48.028;2022-12-29T07:47:15;7.55;;;3.50;;
75470;SDS011;64051;46.320;48.028;2022-12-29T07:49:41;6.03;;;2.67;;
75470;SDS011;64051;46.320;48.028;2022-12-29T07:52:07;7.82;;;3.10;;
75470;SDS011;64051;46.320;48.028;2022-12-29T07:54:33;4.35;;;1.60;;
75470;SDS011;64051;46.320;48.028;2022-12-29T07:57:05;2.92;;;1.30;;
75470;SDS011;64051;46.320;48.028;2022-12-29T07:59:57;4.15;;;2.00;;
75470;SDS011;64051;46.320;48.028;2022-12-29T08:02:24;6.57;;;2.75;;
75470;SDS011;64051;46.320;48.028;2022-12-29T08:04:51;4.70;;;2.28;;
75470;SDS011;64051;46.320;48.028;2022-12-29T08:07:20;6.15;;;2.40;;
75470;SDS011;64051;46.320;48.028;2022-12-29T08:09:58;6.30;;;2.63;;
75470;SDS011;64051;46.320;48.028;2022-12-29T08:12:26;3.83;;;2.05;;
75470;SDS011;64051;46.320;48.028;2022-12-29T08:14:52;7.13;;;2.50;;
75470;SDS011;64051;46.320;48.028;2022-12-29T08:17:27;7.30;;;2.45;;
75470;SDS011;64051;46.320;48.028;2022-12-29T08:19:59;6.82;;;2.47;;
75470;SDS011;64051;46.320;48.028;2022-12-29T08:22:28;4.53;;;2.00;;
75470;SDS011;64051;46.320;48.028;2022-12-29T08:25:00;4.97;;;2.40;;
75470;SDS011;64051;46.320;48.028;2022-12-29T08:27:38;4.57;;;2.15;;
75470;SDS011;64051;46.320;48.028;2022-12-29T08:30:16;5.32;;;2.00;;
75470;SDS011;64051;46.320;48.028;2022-12-29T08:32:42;7.70;;;3.15;;
75470;SDS011;64051;46.320;48.028;2022-12-29T08:35:14;6.95;;;3.28;;
75470;SDS011;64051;46.320;48.028;2022-12-29T08:37:43;7.78;;;3.38;;
75470;SDS011;64051;46.320;48.028;2022-12-29T08:40:17;5.72;;;2.58;;
75470;SDS011;64051;46.320;48.028;2022-12-29T08:42:43;3.70;;;1.92;;
75470;SDS011;64051;46.320;48.028;2022-12-29T08:45:09;4.47;;;2.25;;
75470;SDS011;64051;46.320;48.028;2022-12-29T08:47:42;7.75;;;2.15;;
75470;SDS011;64051;46.320;48.028;2022-12-29T08:50:08;5.32;;;1.98;;
75470;SDS011;64051;46.320;48.028;2022-12-29T08:52:39;3.72;;;1.88;;
75470;SDS011;64051;46.320;48.028;2022-12-29T08:55:08;6.15;;;1.55;;
75470;SDS011;64051;46.320;48.028;2022-12-29T08:57:35;4.53;;;1.60;;
75470;SDS011;64051;46.320;48.028;2022-12-29T09:00:32;2.10;;;1.13;;
75470;SDS011;64051;46.320;48.028;2022-12-29T09:03:06;3.33;;;1.02;;
75470;SDS011;64051;46.320;48.028;2022-12-29T09:05:36;3.00;;;1.00;;
75470;SDS011;64051;46.320;48.028;2022-12-29T09:08:02;2.50;;;1.30;;
75470;SDS011;64051;46.320;48.028;2022-12-29T09:10:31;3.45;;;1.35;;
75470;SDS011;64051;46.320;48.028;2022-12-29T09:13:02;2.58;;;1.30;;
75470;SDS011;64051;46.320;48.028;2022-12-29T09:15:28;2.40;;;1.02;;
75470;SDS011;64051;46.320;48.028;2022-12-29T09:17:54;3.13;;;1.50;;
75470;SDS011;64051;46.320;48.028;2022-12-29T09:20:20;4.40;;;1.42;;
75470;SDS011;64051;46.320;48.028;2022-12-29T09:22:52;5.00;;;1.60;;
75470;SDS011;64051;46.320;48.028;2022-12-29T09:25:21;3.65;;;1.65;;
75470;SDS011;64051;46.320;48.028;2022-12-29T09:27:51;2.47;;;0.98;;
75470;SDS011;64051;46.320;48.028;2022-12-29T09:30:25;2.63;;;0.90;;
75470;SDS011;64051;46.320;48.028;2022-12-29T09:32:51;3.20;;;0.98;;
75470;SDS011;64051;46.320;48.028;2022-12-29T09:35:42;3.28;;;1.30;;
75470;SDS011;64051;46.320;48.028;2022-12-29T09:38:16;5.43;;;1.95;;
75470;SDS011;64051;46.320;48.028;2022-12-29T09:40:43;5.60;;;1.98;;
75470;SDS011;64051;46.320;48.028;2022-12-29T09:43:21;4.32;;;1.33;;
75470;SDS011;64051;46.320;48.028;2022-12-29T09:52:03;1.77;;;1.20;;
75470;SDS011;64051;46.320;48.028;2022-12-29T09:54:55;3.67;;;1.27;;
75470;SDS011;64051;46.320;48.028;2022-12-29T09:57:27;2.03;;;1.02;;
75470;SDS011;64051;46.320;48.028;2022-12-29T10:00:05;1.77;;;0.93;;
75470;SDS011;64051;46.320;48.028;2022-12-29T10:02:42;3.75;;;1.42;;
75470;SDS011;64051;46.320;48.028;2022-12-29T10:10:38;4.80;;;2.15;;
75470;SDS011;64051;46.320;48.028;2022-12-29T10:18:37;6.55;;;1.98;;
75470;SDS011;64051;46.320;48.028;2022-12-29T10:23:45;5.35;;;2.85;;
75470;SDS011;64051;46.320;48.028;2022-12-29T10:26:16;5.40;;;1.77;;
75470;SDS011;64051;46.320;48.028;2022-12-29T10:31:19;5.43;;;1.33;;
75470;SDS011;64051;46.320;48.028;2022-12-29T10:33:53;3.75;;;1.70;;
75470;SDS011;64051;46.320;48.028;2022-12-29T10:39:15;4.10;;;1.42;;
75470;SDS011;64051;46.320;48.028;2022-12-29T10:44:33;6.25;;;1.88;;
75470;SDS011;64051;46.320;48.028;2022-12-29T10:47:04;10.60;;;2.80;;
75470;SDS011;64051;46.320;48.028;2022-12-29T10:49:36;4.53;;;2.05;;
75470;SDS011;64051;46.320;48.028;2022-12-29T10:52:12;3.83;;;1.45;;
75470;SDS011;64051;46.320;48.028;2022-12-29T10:54:44;7.50;;;2.53;;
75470;SDS011;64051;46.320;48.028;2022-12-29T10:57:32;5.90;;;2.28;;
75470;SDS011;64051;46.320;48.028;2022-12-29T11:08:36;6.50;;;2.20;;
75470;SDS011;64051;46.320;48.028;2022-12-29T11:11:07;3.22;;;1.23;;
75470;SDS011;64051;46.320;48.028;2022-12-29T11:13:48;4.47;;;1.77;;
75470;SDS011;64051;46.320;48.028;2022-12-29T11:16:29;2.97;;;1.20;;
75470;SDS011;64051;46.320;48.028;2022-12-29T11:19:04;5.75;;;2.38;;
75470;SDS011;64051;46.320;48.028;2022-12-29T11:21:32;4.68;;;1.67;;
75470;SDS011;64051;46.320;48.028;2022-12-29T11:24:20;2.38;;;1.30;;
75470;SDS011;64051;46.320;48.028;2022-12-29T11:26:52;5.30;;;1.92;;
75470;SDS011;64051;46.320;48.028;2022-12-29T11:29:23;3.55;;;1.40;;
75470;SDS011;64051;46.320;48.028;2022-12-29T11:34:36;4.05;;;1.58;;
75470;SDS011;64051;46.320;48.028;2022-12-29T11:40:03;3.30;;;1.58;;
75470;SDS011;64051;46.320;48.028;2022-12-29T11:42:37;5.95;;;1.95;;
75470;SDS011;64051;46.320;48.028;2022-12-29T11:45:16;6.32;;;2.63;;
75470;SDS011;64051;46.320;48.028;2022-12-29T11:47:45;4.38;;;1.75;;
75470;SDS011;64051;46.320;48.028;2022-12-29T11:50:19;6.25;;;2.42;;
75470;SDS011;64051;46.320;48.028;2022-12-29T11:55:49;3.53;;;1.42;;
75470;SDS011;64051;46.320;48.028;2022-12-29T11:58:30;11.73;;;2.35;;
75470;SDS011;64051;46.320;48.028;2022-12-29T12:01:21;3.58;;;1.58;;
75470;SDS011;64051;46.320;48.028;2022-12-29T12:04:00;6.88;;;1.95;;
75470;SDS011;64051;46.320;48.028;2022-12-29T12:06:32;2.63;;;1.05;;
75470;SDS011;64051;46.320;48.028;2022-12-29T12:09:19;3.50;;;1.70;;
75470;SDS011;64051;46.320;48.028;2022-12-29T12:11:53;6.97;;;1.95;;
75470;SDS011;64051;46.320;48.028;2022-12-29T12:14:46;7.40;;;2.50;;
75470;SDS011;64051;46.320;48.028;2022-12-29T12:17:52;4.22;;;1.52;;
75470;SDS011;64051;46.320;48.028;2022-12-29T12:26:02;4.70;;;1.75;;
75470;SDS011;64051;46.320;48.028;2022-12-29T12:31:25;4.50;;;1.60;;
75470;SDS011;64051;46.320;48.028;2022-12-29T12:34:05;4.18;;;1.90;;
75470;SDS011;64051;46.320;48.028;2022-12-29T12:36:49;5.13;;;1.77;;
75470;SDS011;64051;46.320;48.028;2022-12-29T12:39:49;3.72;;;1.50;;
75470;SDS011;64051;46.320;48.028;2022-12-29T12:42:47;2.95;;;1.35;;
75470;SDS011;64051;46.320;48.028;2022-12-29T12:45:36;2.60;;;1.50;;
75470;SDS011;64051;46.320;48.028;2022-12-29T12:48:20;3.97;;;1.85;;
75470;SDS011;64051;46.320;48.028;2022-12-29T12:51:25;3.38;;;1.45;;
75470;SDS011;64051;46.320;48.028;2022-12-29T12:57:25;4.28;;;1.83;;
75470;SDS011;64051;46.320;48.028;2022-12-29T13:10:41;4.25;;;1.67;;
75470;SDS011;64051;46.320;48.028;2022-12-29T13:22:01;7.43;;;2.13;;
75470;SDS011;64051;46.320;48.028;2022-12-29T13:24:40;7.03;;;2.10;;
75470;SDS011;64051;46.320;48.028;2022-12-29T13:27:19;7.38;;;2.22;;
75470;SDS011;64051;46.320;48.028;2022-12-29T13:30:13;7.03;;;2.45;;
75470;SDS011;64051;46.320;48.028;2022-12-29T13:35:52;9.98;;;2.95;;
75470;SDS011;64051;46.320;48.028;2022-12-29T13:38:46;9.38;;;3.50;;
75470;SDS011;64051;46.320;48.028;2022-12-29T13:44:16;6.47;;;2.42;;
75470;SDS011;64051;46.320;48.028;2022-12-29T13:46:57;3.75;;;1.77;;
75470;SDS011;64051;46.320;48.028;2022-12-29T13:49:30;8.10;;;2.33;;
75470;SDS011;64051;46.320;48.028;2022-12-29T13:52:09;4.25;;;1.90;;
75470;SDS011;64051;46.320;48.028;2022-12-29T13:55:02;6.07;;;1.85;;
75470;SDS011;64051;46.320;48.028;2022-12-29T14:00:23;3.83;;;1.40;;
75470;SDS011;64051;46.320;48.028;2022-12-29T14:08:36;5.55;;;2.03;;
75470;SDS011;64051;46.320;48.028;2022-12-29T14:11:06;2.50;;;1.35;;
75470;SDS011;64051;46.320;48.028;2022-12-29T14:13:44;5.20;;;1.90;;
75470;SDS011;64051;46.320;48.028;2022-12-29T14:16:31;4.53;;;1.83;;
75470;SDS011;64051;46.320;48.028;2022-12-29T14:19:10;3.80;;;1.75;;
75470;SDS011;64051;46.320;48.028;2022-12-29T14:22:04;7.50;;;2.30;;
75470;SDS011;64051;46.320;48.028;2022-12-29T14:24:44;4.75;;;2.25;;
75470;SDS011;64051;46.320;48.028;2022-12-29T14:34:51;4.13;;;1.80;;
75470;SDS011;64051;46.320;48.028;2022-12-29T14:37:34;4.05;;;1.88;;
75470;SDS011;64051;46.320;48.028;2022-12-29T14:42:37;12.10;;;1.70;;
75470;SDS011;64051;46.320;48.028;2022-12-29T14:45:22;4.38;;;1.98;;
75470;SDS011;64051;46.320;48.028;2022-12-29T14:48:37;3.58;;;1.52;;
75470;SDS011;64051;46.320;48.028;2022-12-29T14:51:16;5.35;;;2.47;;
75470;SDS011;64051;46.320;48.028;2022-12-29T14:54:00;5.75;;;2.30;;
75470;SDS011;64051;46.320;48.028;2022-12-29T14:56:39;4.97;;;1.83;;
75470;SDS011;64051;46.320;48.028;2022-12-29T14:59:08;3.58;;;1.77;;
75470;SDS011;64051;46.320;48.028;2022-12-29T15:01:39;5.15;;;1.55;;
75470;SDS011;64051;46.320;48.028;2022-12-29T15:04:23;4.80;;;1.90;;
75470;SDS011;64051;46.320;48.028;2022-12-29T15:07:07;3.47;;;1.58;;
75470;SDS011;64051;46.320;48.028;2022-12-29T15:09:43;7.50;;;2.10;;
75470;SDS011;64051;46.320;48.028;2022-12-29T15:15:13;4.55;;;1.80;;
75470;SDS011;64051;46.320;48.028;2022-12-29T15:17:44;2.10;;;1.33;;
75470;SDS011;64051;46.320;48.028;2022-12-29T15:22:56;4.25;;;1.70;;
75470;SDS011;64051;46.320;48.028;2022-12-29T15:25:32;4.25;;;2.00;;
75470;SDS011;64051;46.320;48.028;2022-12-29T15:28:01;2.85;;;1.45;;
75470;SDS011;64051;46.320;48.028;2022-12-29T15:30:31;4.93;;;1.27;;
75470;SDS011;64051;46.320;48.028;2022-12-29T15:33:41;4.72;;;1.80;;
75470;SDS011;64051;46.320;48.028;2022-12-29T15:36:38;5.30;;;2.08;;
75470;SDS011;64051;46.320;48.028;2022-12-29T15:42:29;3.10;;;1.50;;
75470;SDS011;64051;46.320;48.028;2022-12-29T15:45:49;7.28;;;1.65;;
75470;SDS011;64051;46.320;48.028;2022-12-29T15:48:44;4.80;;;2.00;;
75470;SDS011;64051;46.320;48.028;2022-12-29T16:03:10;3.80;;;1.27;;
75470;SDS011;64051;46.320;48.028;2022-12-29T16:05:56;2.25;;;1.40;;
75470;SDS011;64051;46.320;48.028;2022-12-29T16:08:46;3.25;;;1.35;;
75470;SDS011;64051;46.320;48.028;2022-12-29T16:11:36;1.13;;;0.80;;
75470;SDS011;64051;46.320;48.028;2022-12-29T16:14:12;4.97;;;1.50;;
75470;SDS011;64051;46.320;48.028;2022-12-29T16:16:41;0.95;;;0.85;;
75470;SDS011;64051;46.320;48.028;2022-12-29T16:19:17;3.33;;;1.70;;
75470;SDS011;64051;46.320;48.028;2022-12-29T16:21:57;2.55;;;1.30;;
75470;SDS011;64051;46.320;48.028;2022-12-29T16:24:32;4.53;;;1.40;;
75470;SDS011;64051;46.320;48.028;2022-12-29T16:27:20;2.35;;;1.10;;
75470;SDS011;64051;46.320;48.028;2022-12-29T16:32:56;3.90;;;1.45;;
75470;SDS011;64051;46.320;48.028;2022-12-29T16:35:27;6.03;;;1.83;;
75470;SDS011;64051;46.320;48.028;2022-12-29T16:38:15;3.85;;;1.27;;
75470;SDS011;64051;46.320;48.028;2022-12-29T16:41:02;5.35;;;1.90;;
75470;SDS011;64051;46.320;48.028;2022-12-29T16:44:12;5.60;;;1.63;;
75470;SDS011;64051;46.320;48.028;2022-12-29T16:46:58;3.03;;;1.60;;
75470;SDS011;64051;46.320;48.028;2022-12-29T16:53:25;1.90;;;0.90;;
75470;SDS011;64051;46.320;48.028;2022-12-29T16:56:42;3.67;;;1.45;;
75470;SDS011;64051;46.320;48.028;2022-12-29T17:02:05;2.67;;;0.82;;
75470;SDS011;64051;46.320;48.028;2022-12-29T17:04:33;6.03;;;1.50;;
75470;SDS011;64051;46.320;48.028;2022-12-29T17:07:15;3.03;;;1.30;;
75470;SDS011;64051;46.320;48.028;2022-12-29T17:09:48;7.22;;;1.60;;
75470;SDS011;64051;46.320;48.028;2022-12-29T17:12:25;4.32;;;1.73;;
75470;SDS011;64051;46.320;48.028;2022-12-29T17:15:25;3.28;;;1.70;;
75470;SDS011;64051;46.320;48.028;2022-12-29T17:18:12;2.65;;;1.38;;
75470;SDS011;64051;46.320;48.028;2022-12-29T17:20:41;3.30;;;1.67;;
75470;SDS011;64051;46.320;48.028;2022-12-29T17:24:01;2.28;;;1.20;;
75470;SDS011;64051;46.320;48.028;2022-12-29T17:26:31;3.92;;;1.35;;
75470;SDS011;64051;46.320;48.028;2022-12-29T17:29:00;4.30;;;0.95;;
75470;SDS011;64051;46.320;48.028;2022-12-29T17:31:26;1.30;;;0.85;;
75470;SDS011;64051;46.320;48.028;2022-12-29T17:33:52;3.42;;;1.23;;
75470;SDS011;64051;46.320;48.028;2022-12-29T17:36:24;5.65;;;1.58;;
75470;SDS011;64051;46.320;48.028;2022-12-29T17:39:14;5.22;;;1.67;;
75470;SDS011;64051;46.320;48.028;2022-12-29T17:41:43;7.03;;;1.65;;
75470;SDS011;64051;46.320;48.028;2022-12-29T17:44:13;2.53;;;1.27;;
75470;SDS011;64051;46.320;48.028;2022-12-29T17:46:45;6.38;;;1.92;;
75470;SDS011;64051;46.320;48.028;2022-12-29T17:49:29;3.60;;;1.58;;
75470;SDS011;64051;46.320;48.028;2022-12-29T17:51:55;3.53;;;1.17;;
75470;SDS011;64051;46.320;48.028;2022-12-29T17:54:27;5.75;;;1.60;;
75470;SDS011;64051;46.320;48.028;2022-12-29T17:57:23;5.28;;;1.60;;
75470;SDS011;64051;46.320;48.028;2022-12-29T17:59:49;2.28;;;1.27;;
75470;SDS011;64051;46.320;48.028;2022-12-29T18:03:39;3.10;;;1.40;;
75470;SDS011;64051;46.320;48.028;2022-12-29T18:06:59;2.17;;;0.98;;
75470;SDS011;64051;46.320;48.028;2022-12-29T18:09:56;4.13;;;1.60;;
75470;SDS011;64051;46.320;48.028;2022-12-29T18:13:24;4.28;;;1.23;;
75470;SDS011;64051;46.320;48.028;2022-12-29T18:23:34;4.15;;;1.50;;
75470;SDS011;64051;46.320;48.028;2022-12-29T18:26:17;4.20;;;2.10;;
75470;SDS011;64051;46.320;48.028;2022-12-29T18:28:44;3.33;;;1.38;;
75470;SDS011;64051;46.320;48.028;2022-12-29T18:31:26;3.45;;;1.52;;
75470;SDS011;64051;46.320;48.028;2022-12-29T18:34:00;1.40;;;0.82;;
75470;SDS011;64051;46.320;48.028;2022-12-29T18:40:26;2.20;;;1.42;;
75470;SDS011;64051;46.320;48.028;2022-12-29T18:43:14;3.40;;;1.50;;
75470;SDS011;64051;46.320;48.028;2022-12-29T18:45:55;5.97;;;1.25;;
75470;SDS011;64051;46.320;48.028;2022-12-29T18:52:12;4.22;;;1.67;;
75470;SDS011;64051;46.320;48.028;2022-12-29T18:54:39;3.20;;;1.40;;
75470;SDS011;64051;46.320;48.028;2022-12-29T18:57:07;3.03;;;1.35;;
75470;SDS011;64051;46.320;48.028;2022-12-29T18:59:36;3.00;;;1.42;;
75470;SDS011;64051;46.320;48.028;2022-12-29T19:02:02;3.75;;;1.40;;